Fort Lee, Virginia
Current Conditions -  °F | °C
As of 12:55 PM on Saturday 20 Dec 2014 (Local Time) from KPTB Reporting Station
Overcast Overcast  
Wind Chill: 38°   Ceiling: 11000
Heat Index: 38°   Visibility: 10mi
Dew Point: 23°   Wind: 0mph
Humidity: 54%   Direction: NA
Pressure: 30.3"   Gusts: NA
Location:  37.24°N, 77.34°W
Report Text: KPTB 201755Z AUTO 00000KT 10SM OVC110 04/M05 A3030 RMK AO2 T00351051 10035 20000
Loading
Personal Weather Stations






























Interactive Weather Map New forecast layout! Learn more

10-Day Weather Forecast

Advertisements
Track Severe Weather on mobile